Time;durP1;ratioP1;P1;durP2;ratioP2;P2;SDS_P1;SDS_P2;PMS_P1;PMS_P2;Temp;Humidity;BMP_temperature;BMP_pressure;BME280_temperature;BME280_humidity;BME280_pressure;Samples;Min_cycle;Max_cycle;Signal;HPM_P1;HPM_P2
2023/08/02 00:00:06;;;;;;;9.82;2.92;;;;;;;-145.50;100.00;65435.88;4981540;28;20507;-72
2023/08/02 00:02:33;;;;;;;9.80;3.75;;;;;;;-145.50;100.00;65435.88;4988123;28;20104;-72
2023/08/02 00:04:59;;;;;;;9.88;3.00;;;;;;;-145.50;100.00;65435.88;4986417;28;20053;-72
2023/08/02 00:07:26;;;;;;;7.82;2.80;;;;;;;-145.50;100.00;65435.88;4997300;28;20524;-72
2023/08/02 00:09:53;;;;;;;10.43;3.00;;;;;;;-145.50;100.00;65435.88;4986816;28;20064;-72
2023/08/02 00:12:19;;;;;;;8.63;2.92;;;;;;;-145.50;100.00;65435.88;4987674;28;20482;-72
2023/08/02 00:14:45;;;;;;;13.35;3.50;;;;;;;-145.50;100.00;65435.88;4997004;28;20056;-71
2023/08/02 00:17:12;;;;;;;8.45;2.90;;;;;;;-145.50;100.00;65435.88;5001038;28;20045;-72
2023/08/02 00:19:38;;;;;;;11.75;3.13;;;;;;;-145.50;100.00;65435.88;4991534;28;20423;-72
2023/08/02 00:22:05;;;;;;;9.25;2.97;;;;;;;-145.50;100.00;65435.88;4973594;28;20077;-72
2023/08/02 00:24:31;;;;;;;5.65;3.00;;;;;;;-145.50;100.00;65435.88;4995730;28;20049;-72
2023/08/02 00:26:58;;;;;;;7.00;2.70;;;;;;;-145.50;100.00;65435.88;4987825;28;20575;-72
2023/08/02 00:29:24;;;;;;;11.05;2.83;;;;;;;-145.50;100.00;65435.88;4994447;28;20042;-72
2023/08/02 00:31:51;;;;;;;11.23;3.47;;;;;;;-145.50;100.00;65435.88;5010931;28;20050;-72
2023/08/02 00:34:17;;;;;;;13.55;3.00;;;;;;;-145.50;100.00;65435.88;5017377;28;20030;-72
2023/08/02 00:36:44;;;;;;;12.57;3.00;;;;;;;-145.50;100.00;65435.88;4995709;28;20096;-72
2023/08/02 00:39:11;;;;;;;9.43;3.10;;;;;;;-145.50;100.00;65435.88;4962573;28;20054;-72
2023/08/02 00:41:37;;;;;;;12.07;3.75;;;;;;;-145.50;100.00;65435.88;4994749;28;20129;-72
2023/08/02 00:44:04;;;;;;;9.93;3.28;;;;;;;-145.50;100.00;65435.88;4989572;28;20046;-72
2023/08/02 00:46:30;;;;;;;9.63;3.78;;;;;;;-145.50;100.00;65435.88;4987809;28;20050;-72
2023/08/02 00:48:57;;;;;;;8.88;3.45;;;;;;;-145.50;100.00;65435.88;4988615;28;20060;-72
2023/08/02 00:51:24;;;;;;;11.95;3.28;;;;;;;-145.50;100.00;65435.88;4978654;28;20474;-72
2023/08/02 00:53:51;;;;;;;7.75;3.40;;;;;;;-145.50;100.00;65435.88;4974167;28;20142;-72
2023/08/02 00:56:18;;;;;;;9.48;3.30;;;;;;;-145.50;100.00;65435.88;4984914;28;20059;-72
2023/08/02 00:58:44;;;;;;;9.13;3.20;;;;;;;-145.50;100.00;65435.88;4977496;28;20097;-72
2023/08/02 01:01:11;;;;;;;9.13;3.28;;;;;;;-145.50;100.00;65435.88;4983420;28;20049;-71
2023/08/02 01:03:40;;;;;;;10.82;3.50;;;;;;;-145.50;100.00;65435.88;4993805;28;20093;-72
2023/08/02 01:06:19;;;;;;;13.90;3.50;;;;;;;-145.50;100.00;65435.88;5006589;28;20061;-72
2023/08/02 01:08:56;;;;;;;9.63;3.08;;;;;;;-145.50;100.00;65435.88;4995270;28;20046;-72
2023/08/02 01:11:31;;;;;;;10.55;3.50;;;;;;;-145.50;100.00;65435.88;4966821;28;20046;-72
2023/08/02 01:13:59;;;;;;;11.88;3.80;;;;;;;-145.50;100.00;65435.88;4987046;28;20055;-72
2023/08/02 01:16:26;;;;;;;12.73;3.72;;;;;;;-145.50;100.00;65435.88;4978668;28;21908;-72
2023/08/02 01:19:07;;;;;;;8.70;3.38;;;;;;;-145.50;100.00;65435.88;4998723;28;20057;-72
2023/08/02 01:21:33;;;;;;;9.40;3.60;;;;;;;-145.50;100.00;65435.88;4990510;28;20112;-72
2023/08/02 01:24:00;;;;;;;9.45;3.33;;;;;;;-145.50;100.00;65435.88;4988253;28;20424;-72
2023/08/02 01:26:31;;;;;;;12.65;3.35;;;;;;;-145.50;100.00;65435.88;4979499;28;20168;-72
2023/08/02 01:29:03;;;;;;;8.57;2.80;;;;;;;-145.50;100.00;65435.88;5002838;28;20082;-72
2023/08/02 01:31:32;;;;;;;6.85;2.88;;;;;;;-145.50;100.00;65435.88;4980820;28;20454;-72
2023/08/02 01:34:00;;;;;;;7.93;3.15;;;;;;;-145.50;100.00;65435.88;4980832;28;20050;-72
2023/08/02 01:36:27;;;;;;;7.40;3.10;;;;;;;-145.50;100.00;65435.88;5004122;28;20088;-72
2023/08/02 01:38:53;;;;;;;9.45;3.20;;;;;;;-145.50;100.00;65435.88;4991317;28;20167;-72
2023/08/02 01:41:20;;;;;;;9.90;3.03;;;;;;;-145.50;100.00;65435.88;5003359;28;20096;-72
2023/08/02 01:43:46;;;;;;;8.27;3.03;;;;;;;-145.50;100.00;65435.88;4986088;28;20049;-71
2023/08/02 01:46:13;;;;;;;9.55;3.33;;;;;;;-145.50;100.00;65435.88;4986957;28;20054;-72
2023/08/02 01:48:39;;;;;;;7.50;3.20;;;;;;;-145.50;100.00;65435.88;4991234;28;20347;-72
2023/08/02 01:51:06;;;;;;;10.20;3.05;;;;;;;-145.50;100.00;65435.88;4986370;28;20475;-72
2023/08/02 01:53:32;;;;;;;7.28;2.92;;;;;;;-145.50;100.00;65435.88;4967134;28;20051;-72
2023/08/02 01:55:59;;;;;;;8.27;3.35;;;;;;;-145.50;100.00;65435.88;4990201;28;20120;-71
2023/08/02 01:58:25;;;;;;;7.32;3.03;;;;;;;-145.50;100.00;65435.88;4973377;28;20082;-72
2023/08/02 02:00:52;;;;;;;8.23;2.92;;;;;;;-145.50;100.00;65435.88;4981540;28;20077;-71
2023/08/02 02:03:18;;;;;;;8.50;3.03;;;;;;;-145.50;100.00;65435.88;4992702;28;20527;-71
2023/08/02 02:05:54;;;;;;;9.65;3.17;;;;;;;-145.50;100.00;65435.88;4993286;28;20069;-71
2023/08/02 02:08:22;;;;;;;9.48;3.35;;;;;;;-145.50;100.00;65435.88;4983783;28;20057;-72
2023/08/02 02:10:53;;;;;;;12.18;3.72;;;;;;;-145.50;100.00;65435.88;4975303;28;20495;-73
2023/08/02 02:13:23;;;;;;;10.15;3.00;;;;;;;-145.50;100.00;65435.88;4952737;28;20059;-72
2023/08/02 02:15:50;;;;;;;10.95;3.20;;;;;;;-145.50;100.00;65435.88;5000375;28;20051;-71
2023/08/02 02:18:16;;;;;;;9.45;3.00;;;;;;;-145.50;100.00;65435.88;4985978;28;20046;-72
2023/08/02 02:20:43;;;;;;;5.63;2.65;;;;;;;-145.50;100.00;65435.88;4992948;28;20054;-71
2023/08/02 02:23:09;;;;;;;5.88;2.75;;;;;;;-145.50;100.00;65435.88;4995398;28;20082;-72
2023/08/02 02:25:36;;;;;;;10.77;3.10;;;;;;;-145.50;100.00;65435.88;4968467;28;20058;-72
2023/08/02 02:28:02;;;;;;;11.50;3.03;;;;;;;-145.50;100.00;65435.88;4970656;28;20715;-72
2023/08/02 02:30:30;;;;;;;6.85;2.80;;;;;;;-145.50;100.00;65435.88;4977336;28;20054;-71
2023/08/02 02:32:57;;;;;;;9.93;2.97;;;;;;;-145.50;100.00;65435.88;4987769;28;20058;-73
2023/08/02 02:35:23;;;;;;;10.52;2.65;;;;;;;-145.50;100.00;65435.88;4983152;28;20081;-71
2023/08/02 02:37:51;;;;;;;6.75;3.20;;;;;;;-145.50;100.00;65435.88;4989568;28;20434;-71
2023/08/02 02:40:17;;;;;;;8.13;3.45;;;;;;;-145.50;100.00;65435.88;4974205;28;20345;-71
2023/08/02 02:42:44;;;;;;;8.05;2.58;;;;;;;-145.50;100.00;65435.88;4977776;28;20137;-72
2023/08/02 02:45:10;;;;;;;8.60;3.05;;;;;;;-145.50;100.00;65435.88;4972118;28;20050;-72
2023/08/02 02:47:37;;;;;;;5.47;2.47;;;;;;;-145.50;100.00;65435.88;4970110;28;20418;-72
2023/08/02 02:50:04;;;;;;;5.85;2.40;;;;;;;-145.50;100.00;65435.88;5007059;28;20197;-72
2023/08/02 02:52:33;;;;;;;7.93;2.40;;;;;;;-145.50;100.00;65435.88;4985229;28;20154;-71
2023/08/02 02:55:00;;;;;;;5.93;2.58;;;;;;;-145.50;100.00;65435.88;4967684;28;20058;-72
2023/08/02 02:57:26;;;;;;;7.30;3.17;;;;;;;-145.50;100.00;65435.88;4960286;28;20101;-72
2023/08/02 02:59:53;;;;;;;6.95;2.50;;;;;;;-145.50;100.00;65435.88;4974516;28;20089;-70
2023/08/02 03:02:19;;;;;;;6.18;2.45;;;;;;;-145.50;100.00;65435.88;4994413;28;20115;-70
2023/08/02 03:04:46;;;;;;;9.80;2.60;;;;;;;-145.50;100.00;65435.88;4993046;28;20050;-70
2023/08/02 03:07:12;;;;;;;13.95;2.45;;;;;;;-145.50;100.00;65435.88;5006082;28;20105;-72
2023/08/02 03:09:39;;;;;;;7.25;2.67;;;;;;;-145.50;100.00;65435.88;4998537;28;20054;-70
2023/08/02 03:12:06;;;;;;;7.03;2.67;;;;;;;-145.50;100.00;65435.88;4999421;28;20054;-70
2023/08/02 03:14:32;;;;;;;10.18;3.00;;;;;;;-145.50;100.00;65435.88;4987977;28;20092;-71
2023/08/02 03:16:59;;;;;;;7.53;2.30;;;;;;;-145.50;100.00;65435.88;4964513;28;20084;-69
2023/08/02 03:19:26;;;;;;;7.75;3.00;;;;;;;-145.50;100.00;65435.88;4993733;28;20565;-70
2023/08/02 03:21:52;;;;;;;6.88;2.60;;;;;;;-145.50;100.00;65435.88;4988557;28;20522;-72
2023/08/02 03:24:19;;;;;;;6.75;2.35;;;;;;;-145.50;100.00;65435.88;4981177;28;20257;-70
2023/08/02 03:26:45;;;;;;;5.43;2.72;;;;;;;-145.50;100.00;65435.88;4998366;28;20062;-70
2023/08/02 03:29:12;;;;;;;8.35;2.38;;;;;;;-145.50;100.00;65435.88;4981619;28;20053;-70
2023/08/02 03:31:38;;;;;;;9.48;2.13;;;;;;;-145.50;100.00;65435.88;4990690;28;20145;-70
2023/08/02 03:34:05;;;;;;;7.60;2.78;;;;;;;-145.50;100.00;65435.88;4992734;28;20057;-70
2023/08/02 03:36:31;;;;;;;6.55;2.25;;;;;;;-145.50;100.00;65435.88;4982115;28;20046;-70
2023/08/02 03:38:58;;;;;;;7.65;2.65;;;;;;;-145.50;100.00;65435.88;4988726;28;20050;-71
2023/08/02 03:41:24;;;;;;;7.93;2.35;;;;;;;-145.50;100.00;65435.88;4987344;28;20105;-70
2023/08/02 03:43:51;;;;;;;7.43;2.72;;;;;;;-145.50;100.00;65435.88;4999323;28;20148;-70
2023/08/02 03:46:17;;;;;;;8.02;3.17;;;;;;;-145.50;100.00;65435.88;4981147;28;20054;-70
2023/08/02 03:48:44;;;;;;;7.10;2.42;;;;;;;-145.50;100.00;65435.88;4971392;28;20078;-70
2023/08/02 03:51:10;;;;;;;8.60;2.90;;;;;;;-145.50;100.00;65435.88;4960367;28;20166;-71
2023/08/02 03:53:36;;;;;;;10.10;3.45;;;;;;;-145.50;100.00;65435.88;4989292;28;20105;-70
2023/08/02 03:56:03;;;;;;;6.07;2.75;;;;;;;-145.50;100.00;65435.88;4986262;28;20051;-71
2023/08/02 03:58:30;;;;;;;9.35;3.63;;;;;;;-145.50;100.00;65435.88;4986351;28;20158;-70
2023/08/02 04:00:56;;;;;;;8.90;3.10;;;;;;;-145.50;100.00;65435.88;4985243;28;20054;-71
2023/08/02 04:03:23;;;;;;;5.78;2.60;;;;;;;-145.50;100.00;65435.88;4967324;28;20172;-71
2023/08/02 04:05:49;;;;;;;6.22;3.28;;;;;;;-145.50;100.00;65435.88;4975831;28;20055;-70
2023/08/02 04:08:16;;;;;;;6.93;2.90;;;;;;;-145.50;100.00;65435.88;4994888;28;20057;-70
2023/08/02 04:10:42;;;;;;;8.82;3.33;;;;;;;-145.50;100.00;65435.88;4991737;28;20054;-69
2023/08/02 04:13:09;;;;;;;7.93;2.85;;;;;;;-145.50;100.00;65435.88;4987645;28;20141;-70
2023/08/02 04:15:37;;;;;;;12.00;3.10;;;;;;;-145.50;100.00;65435.88;4974023;28;20094;-70
2023/08/02 04:18:03;;;;;;;6.97;3.15;;;;;;;-145.50;100.00;65435.88;4994931;28;20072;-71
2023/08/02 04:20:30;;;;;;;5.47;2.72;;;;;;;-145.50;100.00;65435.88;4986520;28;20183;-71
2023/08/02 04:22:56;;;;;;;9.13;3.30;;;;;;;-145.50;100.00;65435.88;4981668;28;20150;-71
2023/08/02 04:25:23;;;;;;;6.80;3.28;;;;;;;-145.50;100.00;65435.88;4979394;28;20110;-71
2023/08/02 04:27:49;;;;;;;9.50;3.60;;;;;;;-145.50;100.00;65435.88;4985956;28;20055;-71
2023/08/02 04:30:16;;;;;;;7.60;3.10;;;;;;;-145.50;100.00;65435.88;4983813;28;20137;-72
2023/08/02 04:32:42;;;;;;;4.90;3.00;;;;;;;-145.50;100.00;65435.88;4972333;28;20051;-71
2023/08/02 04:35:09;;;;;;;10.25;3.53;;;;;;;-145.50;100.00;65435.88;4985802;28;20051;-71
2023/08/02 04:37:36;;;;;;;6.82;2.67;;;;;;;-145.50;100.00;65435.88;4984708;28;20629;-70
2023/08/02 04:40:02;;;;;;;7.32;3.25;;;;;;;-145.50;100.00;65435.88;4992211;28;20054;-71
2023/08/02 04:42:29;;;;;;;6.80;3.15;;;;;;;-145.50;100.00;65435.88;4979429;28;20519;-71
2023/08/02 04:44:55;;;;;;;9.82;3.05;;;;;;;-145.50;100.00;65435.88;4981530;28;20050;-72
2023/08/02 04:47:22;;;;;;;8.63;3.00;;;;;;;-145.50;100.00;65435.88;4991260;28;20049;-71
2023/08/02 04:49:49;;;;;;;9.30;2.80;;;;;;;-145.50;100.00;65435.88;4992143;28;20054;-71
2023/08/02 04:52:15;;;;;;;8.38;3.17;;;;;;;-145.50;100.00;65435.88;4995741;28;20062;-71
2023/08/02 04:54:42;;;;;;;6.93;2.55;;;;;;;-145.50;100.00;65435.88;4988460;28;20129;-70
2023/08/02 04:57:08;;;;;;;8.48;2.70;;;;;;;-145.50;100.00;65435.88;4991775;28;20054;-71
2023/08/02 04:59:35;;;;;;;9.05;2.97;;;;;;;-145.50;100.00;65435.88;4993416;28;20085;-71
2023/08/02 05:02:01;;;;;;;7.10;2.80;;;;;;;-145.50;100.00;65435.88;4966870;28;20054;-71
2023/08/02 05:04:28;;;;;;;9.05;2.97;;;;;;;-145.50;100.00;65435.88;4960578;28;20511;-70
2023/08/02 05:06:54;;;;;;;6.85;2.63;;;;;;;-145.50;100.00;65435.88;4993511;28;20449;-70
2023/08/02 05:09:21;;;;;;;7.15;2.67;;;;;;;-145.50;100.00;65435.88;5002172;28;20547;-71
2023/08/02 05:11:47;;;;;;;9.40;3.25;;;;;;;-145.50;100.00;65435.88;4978147;28;20484;-71
2023/08/02 05:14:14;;;;;;;6.88;2.80;;;;;;;-145.50;100.00;65435.88;4993385;28;20545;-71
2023/08/02 05:16:42;;;;;;;9.10;3.00;;;;;;;-145.50;100.00;65435.88;4985621;28;20495;-72
2023/08/02 05:19:09;;;;;;;8.93;3.13;;;;;;;-145.50;100.00;65435.88;4977742;28;21317;-71
2023/08/02 05:21:36;;;;;;;4.85;2.47;;;;;;;-145.50;100.00;65435.88;4980652;28;20589;-70
2023/08/02 05:24:02;;;;;;;6.32;2.75;;;;;;;-145.50;100.00;65435.88;4979296;28;20080;-71
2023/08/02 05:26:29;;;;;;;5.25;2.10;;;;;;;-145.50;100.00;65435.88;5003631;28;20058;-70
2023/08/02 05:28:55;;;;;;;5.30;2.33;;;;;;;-145.50;100.00;65435.88;5000984;28;20046;-70
2023/08/02 05:31:22;;;;;;;6.07;2.65;;;;;;;-145.50;100.00;65435.88;4989229;28;20687;-70
2023/08/02 05:33:48;;;;;;;6.53;2.75;;;;;;;-145.50;100.00;65435.88;4976226;28;20053;-71
2023/08/02 05:36:15;;;;;;;4.63;2.13;;;;;;;-145.50;100.00;65435.88;4984938;28;20132;-70
2023/08/02 05:38:42;;;;;;;6.32;2.58;;;;;;;-145.50;100.00;65435.88;4990294;28;20056;-69
2023/08/02 05:41:09;;;;;;;5.80;2.60;;;;;;;-145.50;100.00;65435.88;4996172;28;20081;-71
2023/08/02 05:43:36;;;;;;;4.63;2.28;;;;;;;-145.50;100.00;65435.88;4989741;28;20050;-69
2023/08/02 05:46:02;;;;;;;5.45;2.30;;;;;;;-145.50;100.00;65435.88;4993133;28;20058;-70
2023/08/02 05:48:29;;;;;;;6.45;2.17;;;;;;;-145.50;100.00;65435.88;4991196;28;20573;-69
2023/08/02 05:50:55;;;;;;;6.75;2.13;;;;;;;-145.50;100.00;65435.88;4990808;28;20673;-70
2023/08/02 05:53:22;;;;;;;4.60;1.95;;;;;;;-145.50;100.00;65435.88;4988953;28;20054;-70
2023/08/02 05:55:49;;;;;;;6.15;2.40;;;;;;;-145.50;100.00;65435.88;5000403;28;20112;-72
2023/08/02 05:58:16;;;;;;;6.43;2.50;;;;;;;-145.50;100.00;65435.88;4986986;28;20132;-71
2023/08/02 06:00:42;;;;;;;6.97;2.42;;;;;;;-145.50;100.00;65435.88;4969665;28;20046;-70
2023/08/02 06:03:09;;;;;;;10.23;2.58;;;;;;;-145.50;100.00;65435.88;4994513;28;20126;-71
2023/08/02 06:05:36;;;;;;;5.15;2.33;;;;;;;-145.50;100.00;65435.88;4969904;28;20046;-70
2023/08/02 06:08:02;;;;;;;4.82;2.50;;;;;;;-145.50;100.00;65435.88;4969535;28;20049;-70
2023/08/02 06:10:30;;;;;;;6.68;2.70;;;;;;;-145.50;100.00;65435.88;4987451;28;20054;-70
2023/08/02 06:12:57;;;;;;;6.22;2.58;;;;;;;-145.50;100.00;65435.88;4975264;28;20061;-73
2023/08/02 06:15:24;;;;;;;5.50;2.70;;;;;;;-145.50;100.00;65435.88;4974813;28;20055;-70
2023/08/02 06:17:51;;;;;;;4.47;2.50;;;;;;;-145.50;100.00;65435.88;4967584;28;20056;-70
2023/08/02 06:20:17;;;;;;;5.82;2.47;;;;;;;-145.50;100.00;65435.88;4985471;28;20479;-71
2023/08/02 06:22:44;;;;;;;5.07;2.58;;;;;;;-145.50;100.00;65435.88;4982580;28;20112;-72
2023/08/02 06:25:10;;;;;;;7.07;2.85;;;;;;;-145.50;100.00;65435.88;4967868;28;20053;-72
2023/08/02 06:27:37;;;;;;;8.50;3.08;;;;;;;-145.50;100.00;65435.88;4963052;28;20255;-72
2023/08/02 06:30:04;;;;;;;6.47;2.97;;;;;;;-145.50;100.00;65435.88;4981583;28;20120;-71
2023/08/02 06:32:31;;;;;;;9.88;3.10;;;;;;;-145.50;100.00;65435.88;4966606;28;20053;-72
2023/08/02 06:34:57;;;;;;;9.15;2.55;;;;;;;-145.50;100.00;65435.88;4979778;28;20062;-71
2023/08/02 06:37:24;;;;;;;6.30;2.95;;;;;;;-145.50;100.00;65435.88;4984886;28;20050;-71
2023/08/02 06:39:50;;;;;;;4.63;2.85;;;;;;;-145.50;100.00;65435.88;4975976;28;20503;-71
2023/08/02 06:42:17;;;;;;;5.63;2.88;;;;;;;-145.50;100.00;65435.88;4989540;28;20057;-72
2023/08/02 06:44:43;;;;;;;6.78;2.92;;;;;;;-145.50;100.00;65435.88;4964112;28;20082;-72
2023/08/02 06:47:10;;;;;;;5.78;3.17;;;;;;;-145.50;100.00;65435.88;4985114;28;20483;-70
2023/08/02 06:49:37;;;;;;;6.10;2.90;;;;;;;-145.50;100.00;65435.88;4999249;28;20054;-73
2023/08/02 06:52:03;;;;;;;5.03;2.53;;;;;;;-145.50;100.00;65435.88;4980189;28;20793;-70
2023/08/02 06:54:30;;;;;;;6.10;2.80;;;;;;;-145.50;100.00;65435.88;4969364;28;20191;-70
2023/08/02 06:56:56;;;;;;;4.72;2.83;;;;;;;-145.50;100.00;65435.88;4979080;28;20055;-69
2023/08/02 06:59:23;;;;;;;6.13;2.58;;;;;;;-145.50;100.00;65435.88;4968547;28;20648;-71
2023/08/02 07:01:52;;;;;;;5.47;3.00;;;;;;;-145.50;100.00;65435.88;4970549;28;20081;-70
2023/08/02 07:04:18;;;;;;;4.65;2.55;;;;;;;-145.50;100.00;65435.88;4984874;28;20515;-71
2023/08/02 07:06:45;;;;;;;5.40;2.83;;;;;;;-145.50;100.00;65435.88;4972549;28;20054;-70
2023/08/02 07:09:11;;;;;;;6.60;2.70;;;;;;;-145.50;100.00;65435.88;4962543;28;20050;-69
2023/08/02 07:11:38;;;;;;;5.35;2.75;;;;;;;-145.50;100.00;65435.88;4982701;28;20047;-69
2023/08/02 07:14:04;;;;;;;8.75;2.72;;;;;;;-145.50;100.00;65435.88;4983047;28;20065;-69
2023/08/02 07:16:31;;;;;;;6.50;2.50;;;;;;;-145.50;100.00;65435.88;4961406;28;20141;-69
2023/08/02 07:19:00;;;;;;;6.22;2.60;;;;;;;-145.50;100.00;65435.88;4976829;28;20475;-70
2023/08/02 07:21:26;;;;;;;5.18;2.65;;;;;;;-145.50;100.00;65435.88;4978459;28;20051;-69
2023/08/02 07:23:53;;;;;;;5.55;2.45;;;;;;;-145.50;100.00;65435.88;4967133;28;20138;-70
2023/08/02 07:26:19;;;;;;;6.25;2.70;;;;;;;-145.50;100.00;65435.88;4974136;28;20140;-69
2023/08/02 07:28:46;;;;;;;5.50;2.40;;;;;;;-145.50;100.00;65435.88;4980109;28;20101;-69
2023/08/02 07:31:12;;;;;;;6.25;2.45;;;;;;;-145.50;100.00;65435.88;4993356;28;20064;-68
2023/08/02 07:33:40;;;;;;;4.95;2.60;;;;;;;-145.50;100.00;65435.88;4968166;28;20051;-69
2023/08/02 07:36:14;;;;;;;5.03;2.53;;;;;;;-145.50;100.00;65435.88;4991316;28;20124;-68
2023/08/02 07:38:43;;;;;;;3.95;2.60;;;;;;;-145.50;100.00;65435.88;4992375;28;20101;-69
2023/08/02 07:41:10;;;;;;;5.03;2.50;;;;;;;-145.50;100.00;65435.88;4978048;28;20456;-69
2023/08/02 07:43:37;;;;;;;3.72;2.30;;;;;;;-145.50;100.00;65435.88;5001796;28;20057;-69
2023/08/02 07:46:03;;;;;;;6.78;2.55;;;;;;;-145.50;100.00;65435.88;4983876;28;20503;-70
2023/08/02 07:48:30;;;;;;;6.35;3.10;;;;;;;-145.50;100.00;65435.88;4989767;28;20081;-69
2023/08/02 07:50:57;;;;;;;8.05;2.70;;;;;;;-145.50;100.00;65435.88;4989431;28;20058;-68
2023/08/02 07:53:23;;;;;;;4.75;2.20;;;;;;;-145.50;100.00;65435.88;4977549;28;20503;-73
2023/08/02 07:56:00;;;;;;;6.70;2.47;;;;;;;-145.50;100.00;65435.88;4981941;28;20482;-70
2023/08/02 07:58:26;;;;;;;2.40;1.58;;;;;;;-145.50;100.00;65435.88;4991135;28;20090;-70
2023/08/02 08:00:53;;;;;;;3.33;1.88;;;;;;;-145.50;100.00;65435.88;4976473;28;20132;-71
2023/08/02 08:03:19;;;;;;;3.15;1.80;;;;;;;-145.50;100.00;65435.88;4979201;28;20078;-69
2023/08/02 08:05:49;;;;;;;4.78;2.25;;;;;;;-145.50;100.00;65435.88;4969473;28;20562;-68
2023/08/02 08:08:16;;;;;;;3.25;1.73;;;;;;;-145.50;100.00;65435.88;4970981;28;20050;-69
2023/08/02 08:10:49;;;;;;;2.60;1.60;;;;;;;-145.50;100.00;65435.88;4978695;28;20054;-69
2023/08/02 08:13:16;;;;;;;1.95;1.60;;;;;;;-145.50;100.00;65435.88;4981239;28;20073;-69
2023/08/02 08:15:43;;;;;;;2.10;1.70;;;;;;;-145.50;100.00;65435.88;4975045;28;20050;-69
2023/08/02 08:18:10;;;;;;;3.13;1.52;;;;;;;-145.50;100.00;65435.88;5007114;28;20049;-70
2023/08/02 08:20:36;;;;;;;3.30;2.25;;;;;;;-145.50;100.00;65435.88;4994403;28;20050;-69
2023/08/02 08:23:03;;;;;;;3.55;1.80;;;;;;;-145.50;100.00;65435.88;4985304;28;20050;-69
2023/08/02 08:25:31;;;;;;;3.85;1.52;;;;;;;-145.50;100.00;65435.88;4991888;28;20050;-70
2023/08/02 08:27:57;;;;;;;2.15;1.45;;;;;;;-145.50;100.00;65435.88;4979056;28;20181;-69
2023/08/02 08:30:24;;;;;;;3.17;1.40;;;;;;;-145.50;100.00;65435.88;4996504;28;20546;-70
2023/08/02 08:32:50;;;;;;;2.60;1.67;;;;;;;-145.50;100.00;65435.88;4999870;28;20053;-70
2023/08/02 08:35:17;;;;;;;2.03;1.77;;;;;;;-145.50;100.00;65435.88;4972039;28;20050;-70
2023/08/02 08:37:43;;;;;;;1.88;1.33;;;;;;;-145.50;100.00;65435.88;4981315;28;20066;-70
2023/08/02 08:40:17;;;;;;;2.67;1.83;;;;;;;-145.50;100.00;65435.88;4989638;28;20109;-69
2023/08/02 08:42:52;;;;;;;1.83;1.58;;;;;;;-145.50;100.00;65435.88;4998640;28;20103;-69
2023/08/02 08:45:21;;;;;;;2.25;1.40;;;;;;;-145.50;100.00;65435.88;4983971;28;20048;-70
2023/08/02 08:47:49;;;;;;;2.45;1.50;;;;;;;-145.50;100.00;65435.88;4988727;28;20054;-69
2023/08/02 08:50:17;;;;;;;1.40;1.23;;;;;;;-145.50;100.00;65435.88;4981144;28;20054;-69
2023/08/02 08:52:46;;;;;;;2.25;1.10;;;;;;;-145.50;100.00;65435.88;4984433;28;20532;-69
2023/08/02 08:55:15;;;;;;;1.80;1.15;;;;;;;-145.50;100.00;65435.88;4981021;28;20107;-71
2023/08/02 08:57:43;;;;;;;1.90;1.23;;;;;;;-145.50;100.00;65435.88;4965810;28;20050;-69
2023/08/02 09:00:13;;;;;;;1.73;1.15;;;;;;;-145.50;100.00;65435.88;4987813;28;20109;-71
2023/08/02 09:02:41;;;;;;;1.58;1.00;;;;;;;-145.50;100.00;65435.88;4971900;28;20101;-71
2023/08/02 09:05:08;;;;;;;2.60;1.20;;;;;;;-145.50;100.00;65435.88;4978684;28;20414;-71
2023/08/02 09:07:35;;;;;;;1.45;1.02;;;;;;;-145.50;100.00;65435.88;4976528;28;20058;-70
2023/08/02 09:10:01;;;;;;;2.58;1.45;;;;;;;-145.50;100.00;65435.88;4966182;28;20076;-70
2023/08/02 09:12:29;;;;;;;1.73;1.10;;;;;;;-145.50;100.00;65435.88;4991083;28;20049;-70
2023/08/02 09:15:05;;;;;;;1.50;1.10;;;;;;;-145.50;100.00;65435.88;4992738;28;20062;-71
2023/08/02 09:17:51;;;;;;;1.00;0.90;;;;;;;-145.50;100.00;65435.88;5002723;28;20042;-69
2023/08/02 09:20:19;;;;;;;1.25;0.90;;;;;;;-145.50;100.00;65435.88;4988381;28;20577;-70
2023/08/02 09:22:46;;;;;;;1.17;0.90;;;;;;;-145.50;100.00;65435.88;4994836;28;20524;-69
2023/08/02 09:25:25;;;;;;;0.80;0.80;;;;;;;-145.50;100.00;65435.88;4990886;28;20498;-72
2023/08/02 09:27:54;;;;;;;0.98;0.93;;;;;;;-145.50;100.00;65435.88;4967704;28;20037;-69
2023/08/02 09:30:28;;;;;;;0.98;0.80;;;;;;;-145.50;100.00;65435.88;4994357;28;20054;-70
2023/08/02 09:33:06;;;;;;;1.27;0.90;;;;;;;-145.50;100.00;65435.88;4991517;28;20058;-70
2023/08/02 09:35:53;;;;;;;3.03;0.90;;;;;;;-145.50;100.00;65435.88;4987410;28;20038;-71
2023/08/02 09:38:20;;;;;;;1.00;0.90;;;;;;;-145.50;100.00;65435.88;4989727;28;20128;-69
2023/08/02 09:40:47;;;;;;;1.98;1.10;;;;;;;-145.50;100.00;65435.88;4998020;28;20768;-71
2023/08/02 09:43:34;;;;;;;1.20;1.10;;;;;;;-145.50;100.00;65435.88;4995504;28;20145;-69
2023/08/02 09:46:00;;;;;;;1.92;1.10;;;;;;;-145.50;100.00;65435.88;4985070;28;20054;-70
2023/08/02 09:48:35;;;;;;;2.20;1.20;;;;;;;-145.50;100.00;65435.88;4991466;28;20072;-69
2023/08/02 09:51:03;;;;;;;2.47;1.20;;;;;;;-145.50;100.00;65435.88;4989000;28;20495;-70
2023/08/02 09:53:31;;;;;;;1.70;1.17;;;;;;;-145.50;100.00;65435.88;4977628;28;20046;-70
2023/08/02 09:56:00;;;;;;;2.58;1.30;;;;;;;-145.50;100.00;65435.88;4981252;28;20053;-69
2023/08/02 09:58:30;;;;;;;1.98;1.48;;;;;;;-145.50;100.00;65435.88;4983994;28;20475;-71
2023/08/02 10:00:57;;;;;;;1.85;1.60;;;;;;;-145.50;100.00;65435.88;4974158;28;20078;-70
2023/08/02 10:03:26;;;;;;;2.22;1.83;;;;;;;-145.50;100.00;65435.88;4983535;28;20141;-70
2023/08/02 10:05:58;;;;;;;3.60;1.88;;;;;;;-145.50;100.00;65435.88;4962817;28;20069;-71
2023/08/02 10:08:29;;;;;;;2.28;2.08;;;;;;;-145.50;100.00;65435.88;4982790;28;20051;-70
2023/08/02 10:10:56;;;;;;;2.55;2.03;;;;;;;-145.50;100.00;65435.88;4981858;28;20062;-71
2023/08/02 10:13:27;;;;;;;2.40;2.00;;;;;;;-145.50;100.00;65435.88;4962735;28;20098;-71
2023/08/02 10:15:55;;;;;;;3.25;2.42;;;;;;;-145.50;100.00;65435.88;4973735;28;20106;-72
2023/08/02 10:18:24;;;;;;;4.15;2.47;;;;;;;-145.50;100.00;65435.88;4995219;28;20046;-71
2023/08/02 10:20:52;;;;;;;2.40;2.20;;;;;;;-145.50;100.00;65435.88;4966769;28;20104;-70
2023/08/02 10:23:19;;;;;;;2.65;2.42;;;;;;;-145.50;100.00;65435.88;4976653;28;20113;-70
2023/08/02 10:25:46;;;;;;;4.35;2.35;;;;;;;-145.50;100.00;65435.88;4976395;28;20509;-71
2023/08/02 10:28:13;;;;;;;3.30;2.78;;;;;;;-145.50;100.00;65435.88;4962496;28;20114;-70
2023/08/02 10:30:40;;;;;;;5.17;2.77;;;;;;;-145.50;100.00;65435.88;4989182;28;20058;-69
2023/08/02 10:33:21;;;;;;;3.33;2.90;;;;;;;-145.50;100.00;65435.88;4964182;28;20047;-71
2023/08/02 10:36:01;;;;;;;2.20;2.00;;;;;;;-145.50;100.00;65435.88;4965913;28;20073;-72
2023/08/02 10:38:46;;;;;;;2.88;2.40;;;;;;;-145.50;100.00;65435.88;4977059;28;20118;-70
2023/08/02 10:41:17;;;;;;;3.10;2.63;;;;;;;-145.50;100.00;65435.88;4979498;28;20051;-70
2023/08/02 10:43:53;;;;;;;2.38;2.17;;;;;;;-145.50;100.00;65435.88;4986334;28;20054;-70
2023/08/02 10:46:26;;;;;;;2.95;2.38;;;;;;;-145.50;100.00;65435.88;4984319;28;20046;-70
2023/08/02 10:49:13;;;;;;;2.50;2.30;;;;;;;-145.50;100.00;65435.88;4980405;28;20065;-70
2023/08/02 10:51:41;;;;;;;2.00;1.90;;;;;;;-145.50;100.00;65435.88;4970648;28;20108;-71
2023/08/02 10:54:21;;;;;;;3.28;2.20;;;;;;;-145.50;100.00;65435.88;4990549;28;20400;-72
2023/08/02 10:57:09;;;;;;;3.78;2.30;;;;;;;-145.50;100.00;65435.88;4985545;28;20057;-74
2023/08/02 10:59:39;;;;;;;2.30;1.92;;;;;;;-145.50;100.00;65435.88;4992386;28;20053;-73
2023/08/02 11:02:09;;;;;;;2.38;2.15;;;;;;;-145.50;100.00;65435.88;4959789;28;20108;-72
2023/08/02 11:04:37;;;;;;;2.55;1.80;;;;;;;-145.50;100.00;65435.88;4991211;28;20083;-73
2023/08/02 11:07:18;;;;;;;4.65;3.20;;;;;;;-145.50;100.00;65435.88;4991048;28;20096;-73
2023/08/02 11:09:46;;;;;;;2.10;1.90;;;;;;;-145.50;100.00;65435.88;4964222;28;20097;-72
2023/08/02 11:12:14;;;;;;;2.70;2.00;;;;;;;-145.50;100.00;65435.88;4988384;28;20091;-72